Lincoln, MA

5:05 AM EST on November 29, 2014 (GMT -0500)
Lincoln Center, Lincoln MA | Change Station
CLOSE
Current Station
Personal Weather Station
Location: Lincoln, MA
Elevation: 230 ft
Nearby Weather Stations

Elev 230 ft 42.42 °N, 71.31 °W | Updated 1 second ago

Clear
Clear
15.3 °F
Feels Like 15 °F
N
0.0
Wind Variable Wind from SSW
Gusts 0.0 mph

Today
High -- | Low -- °F
--% Chance of Precip.
Yesterday
High -- | Low -- °F
Precip. -- in
6:52 AM 4:14 PM
Waxing Crescent, 50% visible
Pressure 30.32 in
Visibility 10.0 miles
Clouds Clear
Windchill 15 °F
Dew Point 14 °F
Humidity 94%
Rainfall 0.00 in
Snow Depth Not available.
UV 0 out of 12
Pollen .10 out of 12
Air Quality Not available.
Flu Activity Not available.
METAR KBED 290956Z 00000KT 10SM CLR M09/M10 A3027 RMK AO2 SLP268 I1000 T10941100

More Conditions Fewer Conditions

Pressure 30.32 in
Visibility 10.0 miles
Clouds Clear
Windchill 15 °F
Dew Point 14 °F
Humidity 94%
Rainfall 0.00 in
Snow Depth Not available.
UV 0 out of 12
Pollen .10 out of 12
Air Quality Not available.
Flu Activity Not available.
METAR KBED 290956Z 00000KT 10SM CLR M09/M10 A3027 RMK AO2 SLP268 I1000 T10941100

More Conditions Fewer Conditions

10-Day Weather Forecast

Almanac

Astronomy

Nov. 29, 2014 Rise Set
Actual Time
Civil Twilight
Nautical Twilight
Astronomical Twilight
Moon
Length of Visible Light
Length of Day
Tomorrow will be .
, % of the Moon is Illuminated

Today's Extremes

State Highs State Lows

Community

WunderPhotos

Upload Photos

1,774,442 photos uploaded!

WunderBlogs® & News

Nearby

Air Quality

  Air Quality AQ Index Pollutant
Not available.

Snow Depth

Station Depth Elevation

Earthquake Activity

City Distance Mag. Time & Date
Minimum magnitude displayed is 2.5.

Coastal Water Temperatures

Place Temperature

Nearby Weather Stations